sensor_id;sensor_type;location;lat;lon;timestamp;temperature;humidity
8248;DHT22;4164;49.844;8.830;2022-09-02T00:03:48;14.00;99.90
8248;DHT22;4164;49.844;8.830;2022-09-02T00:06:15;14.00;99.90
8248;DHT22;4164;49.844;8.830;2022-09-02T00:08:41;14.00;99.90
8248;DHT22;4164;49.844;8.830;2022-09-02T00:11:08;13.90;99.90
8248;DHT22;4164;49.844;8.830;2022-09-02T00:13:36;13.90;99.90
8248;DHT22;4164;49.844;8.830;2022-09-02T00:16:03;14.00;99.90
8248;DHT22;4164;49.844;8.830;2022-09-02T00:18:29;14.00;99.90
8248;DHT22;4164;49.844;8.830;2022-09-02T00:20:55;14.00;99.90
8248;DHT22;4164;49.844;8.830;2022-09-02T00:23:21;14.10;99.90
8248;DHT22;4164;49.844;8.830;2022-09-02T00:25:47;14.00;99.90
8248;DHT22;4164;49.844;8.830;2022-09-02T00:28:14;14.00;99.90
8248;DHT22;4164;49.844;8.830;2022-09-02T00:30:41;14.00;99.90
8248;DHT22;4164;49.844;8.830;2022-09-02T00:33:07;14.00;99.90
8248;DHT22;4164;49.844;8.830;2022-09-02T00:35:32;14.00;99.90
8248;DHT22;4164;49.844;8.830;2022-09-02T00:37:58;14.10;99.90
8248;DHT22;4164;49.844;8.830;2022-09-02T00:40:24;14.10;99.90
8248;DHT22;4164;49.844;8.830;2022-09-02T00:42:51;14.10;99.90
8248;DHT22;4164;49.844;8.830;2022-09-02T00:45:17;14.00;99.90
8248;DHT22;4164;49.844;8.830;2022-09-02T00:47:44;14.00;99.90
8248;DHT22;4164;49.844;8.830;2022-09-02T00:50:12;14.00;99.90
8248;DHT22;4164;49.844;8.830;2022-09-02T00:52:59;14.10;99.90
8248;DHT22;4164;49.844;8.830;2022-09-02T00:55:29;14.00;99.90
8248;DHT22;4164;49.844;8.830;2022-09-02T00:58:02;13.90;99.90
8248;DHT22;4164;49.844;8.830;2022-09-02T01:00:33;13.90;99.90
8248;DHT22;4164;49.844;8.830;2022-09-02T01:03:02;13.80;99.90
8248;DHT22;4164;49.844;8.830;2022-09-02T01:05:32;13.90;99.90
8248;DHT22;4164;49.844;8.830;2022-09-02T01:07:58;13.90;99.90
8248;DHT22;4164;49.844;8.830;2022-09-02T01:10:28;13.80;99.90
8248;DHT22;4164;49.844;8.830;2022-09-02T01:12:59;13.70;99.90
8248;DHT22;4164;49.844;8.830;2022-09-02T01:15:25;13.70;99.90
8248;DHT22;4164;49.844;8.830;2022-09-02T01:17:51;13.70;99.90
8248;DHT22;4164;49.844;8.830;2022-09-02T01:20:20;13.70;99.90
8248;DHT22;4164;49.844;8.830;2022-09-02T01:22:47;13.80;99.90
8248;DHT22;4164;49.844;8.830;2022-09-02T01:25:19;13.80;99.90
8248;DHT22;4164;49.844;8.830;2022-09-02T01:27:45;13.70;99.90
8248;DHT22;4164;49.844;8.830;2022-09-02T01:30:18;13.80;99.90
8248;DHT22;4164;49.844;8.830;2022-09-02T01:32:44;13.70;99.90
8248;DHT22;4164;49.844;8.830;2022-09-02T01:35:10;13.70;99.90
8248;DHT22;4164;49.844;8.830;2022-09-02T01:37:37;13.70;99.90
8248;DHT22;4164;49.844;8.830;2022-09-02T01:40:08;13.70;99.90
8248;DHT22;4164;49.844;8.830;2022-09-02T01:42:34;13.80;99.90
8248;DHT22;4164;49.844;8.830;2022-09-02T01:45:00;13.70;99.90
8248;DHT22;4164;49.844;8.830;2022-09-02T01:47:27;13.60;99.90
8248;DHT22;4164;49.844;8.830;2022-09-02T01:49:53;13.60;99.90
8248;DHT22;4164;49.844;8.830;2022-09-02T01:52:20;13.60;99.90
8248;DHT22;4164;49.844;8.830;2022-09-02T01:54:46;13.50;99.90
8248;DHT22;4164;49.844;8.830;2022-09-02T01:57:12;13.50;99.90
8248;DHT22;4164;49.844;8.830;2022-09-02T01:59:37;13.50;99.90
8248;DHT22;4164;49.844;8.830;2022-09-02T02:02:04;13.50;99.90
8248;DHT22;4164;49.844;8.830;2022-09-02T02:04:30;13.50;99.90
8248;DHT22;4164;49.844;8.830;2022-09-02T02:06:56;13.50;99.90
8248;DHT22;4164;49.844;8.830;2022-09-02T02:09:22;13.50;99.90
8248;DHT22;4164;49.844;8.830;2022-09-02T02:11:48;13.50;99.90
8248;DHT22;4164;49.844;8.830;2022-09-02T02:14:14;13.50;99.90
8248;DHT22;4164;49.844;8.830;2022-09-02T02:16:40;13.50;99.90
8248;DHT22;4164;49.844;8.830;2022-09-02T02:19:06;13.60;99.90
8248;DHT22;4164;49.844;8.830;2022-09-02T02:21:31;13.60;99.90
8248;DHT22;4164;49.844;8.830;2022-09-02T02:23:57;13.60;99.90
8248;DHT22;4164;49.844;8.830;2022-09-02T02:26:26;13.50;99.90
8248;DHT22;4164;49.844;8.830;2022-09-02T02:28:52;13.40;99.90
8248;DHT22;4164;49.844;8.830;2022-09-02T02:31:17;13.50;99.90
8248;DHT22;4164;49.844;8.830;2022-09-02T02:33:43;13.50;99.90
8248;DHT22;4164;49.844;8.830;2022-09-02T02:36:09;13.50;99.90
8248;DHT22;4164;49.844;8.830;2022-09-02T02:38:36;13.50;99.90
8248;DHT22;4164;49.844;8.830;2022-09-02T02:41:03;13.50;99.90
8248;DHT22;4164;49.844;8.830;2022-09-02T02:43:31;13.50;99.90
8248;DHT22;4164;49.844;8.830;2022-09-02T02:45:57;13.60;99.90
8248;DHT22;4164;49.844;8.830;2022-09-02T02:48:23;13.60;99.90
8248;DHT22;4164;49.844;8.830;2022-09-02T02:50:49;13.60;99.90
8248;DHT22;4164;49.844;8.830;2022-09-02T02:53:14;13.40;99.90
8248;DHT22;4164;49.844;8.830;2022-09-02T02:55:42;13.30;99.90
8248;DHT22;4164;49.844;8.830;2022-09-02T02:58:08;13.20;99.90
8248;DHT22;4164;49.844;8.830;2022-09-02T03:00:34;13.20;99.90
8248;DHT22;4164;49.844;8.830;2022-09-02T03:03:03;13.10;99.90
8248;DHT22;4164;49.844;8.830;2022-09-02T03:08:40;13.00;99.90
8248;DHT22;4164;49.844;8.830;2022-09-02T03:11:06;13.10;99.90
8248;DHT22;4164;49.844;8.830;2022-09-02T03:13:33;13.10;99.90
8248;DHT22;4164;49.844;8.830;2022-09-02T03:15:59;13.20;99.90
8248;DHT22;4164;49.844;8.830;2022-09-02T03:18:25;13.30;99.90
8248;DHT22;4164;49.844;8.830;2022-09-02T03:20:50;13.30;99.90
8248;DHT22;4164;49.844;8.830;2022-09-02T03:23:16;13.20;99.90
8248;DHT22;4164;49.844;8.830;2022-09-02T03:25:44;13.30;99.90
8248;DHT22;4164;49.844;8.830;2022-09-02T03:28:10;13.40;99.90
8248;DHT22;4164;49.844;8.830;2022-09-02T03:30:37;13.40;99.90
8248;DHT22;4164;49.844;8.830;2022-09-02T03:33:03;13.50;99.90
8248;DHT22;4164;49.844;8.830;2022-09-02T03:35:31;13.50;99.90
8248;DHT22;4164;49.844;8.830;2022-09-02T03:37:58;13.50;99.90
8248;DHT22;4164;49.844;8.830;2022-09-02T03:40:26;13.70;99.90
8248;DHT22;4164;49.844;8.830;2022-09-02T03:42:52;13.80;99.90
8248;DHT22;4164;49.844;8.830;2022-09-02T03:45:19;13.80;99.90
8248;DHT22;4164;49.844;8.830;2022-09-02T03:47:46;13.80;99.90
8248;DHT22;4164;49.844;8.830;2022-09-02T03:50:21;13.70;99.90
8248;DHT22;4164;49.844;8.830;2022-09-02T03:52:47;13.60;99.90
8248;DHT22;4164;49.844;8.830;2022-09-02T03:55:13;13.50;99.90
8248;DHT22;4164;49.844;8.830;2022-09-02T03:57:40;13.40;99.90
8248;DHT22;4164;49.844;8.830;2022-09-02T04:00:08;13.40;99.90
8248;DHT22;4164;49.844;8.830;2022-09-02T04:02:34;13.20;99.90
8248;DHT22;4164;49.844;8.830;2022-09-02T04:05:00;13.10;99.90
8248;DHT22;4164;49.844;8.830;2022-09-02T04:07:25;13.00;99.90
8248;DHT22;4164;49.844;8.830;2022-09-02T04:09:51;13.10;99.90
8248;DHT22;4164;49.844;8.830;2022-09-02T04:12:17;13.10;99.90
8248;DHT22;4164;49.844;8.830;2022-09-02T04:14:43;13.10;99.90
8248;DHT22;4164;49.844;8.830;2022-09-02T04:17:08;13.20;99.90
8248;DHT22;4164;49.844;8.830;2022-09-02T04:19:34;13.20;99.90
8248;DHT22;4164;49.844;8.830;2022-09-02T04:22:01;13.20;99.90
8248;DHT22;4164;49.844;8.830;2022-09-02T04:24:27;13.20;99.90
8248;DHT22;4164;49.844;8.830;2022-09-02T04:26:53;13.20;99.90
8248;DHT22;4164;49.844;8.830;2022-09-02T04:29:19;13.20;99.90
8248;DHT22;4164;49.844;8.830;2022-09-02T04:31:44;13.30;99.90
8248;DHT22;4164;49.844;8.830;2022-09-02T04:34:10;13.30;99.90
8248;DHT22;4164;49.844;8.830;2022-09-02T04:36:35;13.30;99.90
8248;DHT22;4164;49.844;8.830;2022-09-02T04:39:01;13.30;99.90
8248;DHT22;4164;49.844;8.830;2022-09-02T04:41:28;13.20;99.90
8248;DHT22;4164;49.844;8.830;2022-09-02T04:43:56;13.10;99.90
8248;DHT22;4164;49.844;8.830;2022-09-02T04:46:22;13.10;99.90
8248;DHT22;4164;49.844;8.830;2022-09-02T04:48:48;12.90;99.90
8248;DHT22;4164;49.844;8.830;2022-09-02T04:51:17;12.90;99.90
8248;DHT22;4164;49.844;8.830;2022-09-02T04:53:43;12.70;99.90
8248;DHT22;4164;49.844;8.830;2022-09-02T04:56:12;12.80;99.90
8248;DHT22;4164;49.844;8.830;2022-09-02T04:58:39;12.90;99.90
8248;DHT22;4164;49.844;8.830;2022-09-02T05:01:07;12.90;99.90
8248;DHT22;4164;49.844;8.830;2022-09-02T05:03:34;13.00;99.90
8248;DHT22;4164;49.844;8.830;2022-09-02T05:06:05;13.10;99.90
8248;DHT22;4164;49.844;8.830;2022-09-02T05:08:31;13.10;99.90
8248;DHT22;4164;49.844;8.830;2022-09-02T05:10:57;13.00;99.90
8248;DHT22;4164;49.844;8.830;2022-09-02T05:13:23;13.00;99.90
8248;DHT22;4164;49.844;8.830;2022-09-02T05:15:50;13.10;99.90
8248;DHT22;4164;49.844;8.830;2022-09-02T05:18:16;13.20;99.90
8248;DHT22;4164;49.844;8.830;2022-09-02T05:20:41;13.40;99.90
8248;DHT22;4164;49.844;8.830;2022-09-02T05:23:11;13.60;99.90
8248;DHT22;4164;49.844;8.830;2022-09-02T05:25:37;13.80;99.90
8248;DHT22;4164;49.844;8.830;2022-09-02T05:28:04;13.80;99.90
8248;DHT22;4164;49.844;8.830;2022-09-02T05:30:30;14.00;99.90
8248;DHT22;4164;49.844;8.830;2022-09-02T05:32:56;14.10;99.90
8248;DHT22;4164;49.844;8.830;2022-09-02T05:35:22;14.10;99.90
8248;DHT22;4164;49.844;8.830;2022-09-02T05:37:47;14.20;99.90
8248;DHT22;4164;49.844;8.830;2022-09-02T05:40:13;14.20;99.90
8248;DHT22;4164;49.844;8.830;2022-09-02T05:42:38;14.30;99.90
8248;DHT22;4164;49.844;8.830;2022-09-02T05:45:05;14.30;99.90
8248;DHT22;4164;49.844;8.830;2022-09-02T05:47:33;14.40;99.90
8248;DHT22;4164;49.844;8.830;2022-09-02T05:49:59;14.40;99.90
8248;DHT22;4164;49.844;8.830;2022-09-02T05:52:26;14.40;99.90
8248;DHT22;4164;49.844;8.830;2022-09-02T05:54:52;14.40;99.90
8248;DHT22;4164;49.844;8.830;2022-09-02T05:57:19;14.40;99.90
8248;DHT22;4164;49.844;8.830;2022-09-02T05:59:45;14.40;99.90
8248;DHT22;4164;49.844;8.830;2022-09-02T06:02:14;14.50;99.90
8248;DHT22;4164;49.844;8.830;2022-09-02T06:04:44;14.60;99.90
8248;DHT22;4164;49.844;8.830;2022-09-02T06:07:10;14.80;99.90
8248;DHT22;4164;49.844;8.830;2022-09-02T06:09:35;14.80;99.90
8248;DHT22;4164;49.844;8.830;2022-09-02T06:12:01;14.90;99.90
8248;DHT22;4164;49.844;8.830;2022-09-02T06:14:27;15.10;99.90
8248;DHT22;4164;49.844;8.830;2022-09-02T06:16:54;15.30;99.90
8248;DHT22;4164;49.844;8.830;2022-09-02T06:19:21;15.60;99.90
8248;DHT22;4164;49.844;8.830;2022-09-02T06:21:49;15.70;99.90
8248;DHT22;4164;49.844;8.830;2022-09-02T06:24:15;15.80;99.90
8248;DHT22;4164;49.844;8.830;2022-09-02T06:26:41;16.00;99.90
8248;DHT22;4164;49.844;8.830;2022-09-02T06:29:08;16.20;99.90
8248;DHT22;4164;49.844;8.830;2022-09-02T06:31:33;16.30;99.90
8248;DHT22;4164;49.844;8.830;2022-09-02T06:33:59;16.50;99.90
8248;DHT22;4164;49.844;8.830;2022-09-02T06:36:27;16.60;99.90
8248;DHT22;4164;49.844;8.830;2022-09-02T06:38:55;16.60;99.90
8248;DHT22;4164;49.844;8.830;2022-09-02T06:41:24;16.70;99.90
8248;DHT22;4164;49.844;8.830;2022-09-02T06:44:02;16.90;99.90
8248;DHT22;4164;49.844;8.830;2022-09-02T06:46:31;17.00;99.90
8248;DHT22;4164;49.844;8.830;2022-09-02T06:48:57;17.00;99.90
8248;DHT22;4164;49.844;8.830;2022-09-02T06:51:29;17.10;99.90
8248;DHT22;4164;49.844;8.830;2022-09-02T06:53:55;17.30;99.90
8248;DHT22;4164;49.844;8.830;2022-09-02T06:56:22;17.50;99.90
8248;DHT22;4164;49.844;8.830;2022-09-02T06:58:47;17.60;99.90
8248;DHT22;4164;49.844;8.830;2022-09-02T07:01:21;17.80;99.90
8248;DHT22;4164;49.844;8.830;2022-09-02T07:03:50;18.00;99.90
8248;DHT22;4164;49.844;8.830;2022-09-02T07:06:36;18.00;99.90
8248;DHT22;4164;49.844;8.830;2022-09-02T07:09:04;18.20;99.90
8248;DHT22;4164;49.844;8.830;2022-09-02T07:11:29;18.40;99.90
8248;DHT22;4164;49.844;8.830;2022-09-02T07:13:55;18.40;99.90
8248;DHT22;4164;49.844;8.830;2022-09-02T07:16:24;18.40;99.90
8248;DHT22;4164;49.844;8.830;2022-09-02T07:18:50;18.30;99.90
8248;DHT22;4164;49.844;8.830;2022-09-02T07:21:15;18.30;99.90
8248;DHT22;4164;49.844;8.830;2022-09-02T07:23:41;18.40;99.90
8248;DHT22;4164;49.844;8.830;2022-09-02T07:26:16;18.50;99.90
8248;DHT22;4164;49.844;8.830;2022-09-02T07:28:42;18.80;99.90
8248;DHT22;4164;49.844;8.830;2022-09-02T07:31:09;18.90;99.90
8248;DHT22;4164;49.844;8.830;2022-09-02T07:33:35;19.00;99.90
8248;DHT22;4164;49.844;8.830;2022-09-02T07:36:03;19.10;99.90
8248;DHT22;4164;49.844;8.830;2022-09-02T07:38:29;19.10;99.90
8248;DHT22;4164;49.844;8.830;2022-09-02T07:40:55;19.30;99.90
8248;DHT22;4164;49.844;8.830;2022-09-02T07:43:21;19.40;99.90
8248;DHT22;4164;49.844;8.830;2022-09-02T07:45:46;19.50;99.90
8248;DHT22;4164;49.844;8.830;2022-09-02T07:48:12;19.60;99.90
8248;DHT22;4164;49.844;8.830;2022-09-02T07:50:40;19.80;99.90
8248;DHT22;4164;49.844;8.830;2022-09-02T07:53:06;19.90;99.90
8248;DHT22;4164;49.844;8.830;2022-09-02T07:55:35;20.00;99.90
8248;DHT22;4164;49.844;8.830;2022-09-02T07:58:01;20.20;99.90
8248;DHT22;4164;49.844;8.830;2022-09-02T08:00:28;20.20;99.90
8248;DHT22;4164;49.844;8.830;2022-09-02T08:02:54;20.30;99.90
8248;DHT22;4164;49.844;8.830;2022-09-02T08:05:20;20.50;99.90
8248;DHT22;4164;49.844;8.830;2022-09-02T08:07:46;20.60;99.90
8248;DHT22;4164;49.844;8.830;2022-09-02T08:10:11;20.80;99.90
8248;DHT22;4164;49.844;8.830;2022-09-02T08:12:39;20.90;99.90
8248;DHT22;4164;49.844;8.830;2022-09-02T08:15:06;20.80;99.90
8248;DHT22;4164;49.844;8.830;2022-09-02T08:52:58;21.80;99.90
8248;DHT22;4164;49.844;8.830;2022-09-02T08:55:34;22.10;99.90
8248;DHT22;4164;49.844;8.830;2022-09-02T08:58:00;22.30;99.90
8248;DHT22;4164;49.844;8.830;2022-09-02T09:00:29;22.40;99.30
8248;DHT22;4164;49.844;8.830;2022-09-02T09:11:15;22.50;97.20
8248;DHT22;4164;49.844;8.830;2022-09-02T09:21:38;23.10;96.50
8248;DHT22;4164;49.844;8.830;2022-09-02T09:24:38;23.10;96.10
8248;DHT22;4164;49.844;8.830;2022-09-02T09:27:15;23.20;95.00
8248;DHT22;4164;49.844;8.830;2022-09-02T09:29:40;23.30;94.70
8248;DHT22;4164;49.844;8.830;2022-09-02T09:35:07;23.50;94.90
8248;DHT22;4164;49.844;8.830;2022-09-02T09:37:47;23.60;93.90
8248;DHT22;4164;49.844;8.830;2022-09-02T09:42:47;23.80;97.70
8248;DHT22;4164;49.844;8.830;2022-09-02T09:45:34;23.60;97.60
8248;DHT22;4164;49.844;8.830;2022-09-02T09:50:46;23.70;95.60
8248;DHT22;4164;49.844;8.830;2022-09-02T09:53:29;23.80;93.70
8248;DHT22;4164;49.844;8.830;2022-09-02T10:01:20;23.80;92.60
8248;DHT22;4164;49.844;8.830;2022-09-02T10:04:07;23.90;92.90
8248;DHT22;4164;49.844;8.830;2022-09-02T10:06:43;24.20;91.60
8248;DHT22;4164;49.844;8.830;2022-09-02T10:14:45;25.00;87.30
8248;DHT22;4164;49.844;8.830;2022-09-02T10:17:45;25.00;84.80
8248;DHT22;4164;49.844;8.830;2022-09-02T10:21:01;25.10;82.90
8248;DHT22;4164;49.844;8.830;2022-09-02T10:23:43;24.60;83.50
8248;DHT22;4164;49.844;8.830;2022-09-02T10:26:35;23.90;82.60
8248;DHT22;4164;49.844;8.830;2022-09-02T10:37:10;24.20;78.70
8248;DHT22;4164;49.844;8.830;2022-09-02T10:40:11;24.30;76.50
8248;DHT22;4164;49.844;8.830;2022-09-02T10:48:13;25.80;72.00
8248;DHT22;4164;49.844;8.830;2022-09-02T10:50:57;26.30;66.60
8248;DHT22;4164;49.844;8.830;2022-09-02T10:53:48;26.60;66.50
8248;DHT22;4164;49.844;8.830;2022-09-02T10:56:19;27.50;65.50
8248;DHT22;4164;49.844;8.830;2022-09-02T10:58:57;28.90;58.30
8248;DHT22;4164;49.844;8.830;2022-09-02T11:07:03;33.60;43.00
8248;DHT22;4164;49.844;8.830;2022-09-02T11:09:39;34.40;41.50
8248;DHT22;4164;49.844;8.830;2022-09-02T11:12:13;35.40;39.40
8248;DHT22;4164;49.844;8.830;2022-09-02T11:23:05;35.30;34.90
8248;DHT22;4164;49.844;8.830;2022-09-02T11:26:01;36.20;34.60
8248;DHT22;4164;49.844;8.830;2022-09-02T11:31:37;37.30;32.30
8248;DHT22;4164;49.844;8.830;2022-09-02T11:37:10;39.60;29.90
8248;DHT22;4164;49.844;8.830;2022-09-02T11:39:42;38.50;30.00
8248;DHT22;4164;49.844;8.830;2022-09-02T11:45:28;38.90;29.50
8248;DHT22;4164;49.844;8.830;2022-09-02T11:54:03;38.30;29.70
8248;DHT22;4164;49.844;8.830;2022-09-02T11:56:35;36.50;30.40
8248;DHT22;4164;49.844;8.830;2022-09-02T11:59:05;36.60;30.00
8248;DHT22;4164;49.844;8.830;2022-09-02T12:01:38;37.10;29.10
8248;DHT22;4164;49.844;8.830;2022-09-02T12:06:30;37.90;28.60
8248;DHT22;4164;49.844;8.830;2022-09-02T12:08:58;36.80;29.20
8248;DHT22;4164;49.844;8.830;2022-09-02T12:14:11;37.40;29.80
8248;DHT22;4164;49.844;8.830;2022-09-02T12:17:05;37.10;29.70
8248;DHT22;4164;49.844;8.830;2022-09-02T12:24:52;36.80;29.90
8248;DHT22;4164;49.844;8.830;2022-09-02T12:29:47;38.90;28.40
8248;DHT22;4164;49.844;8.830;2022-09-02T12:35:57;37.10;29.50
8248;DHT22;4164;49.844;8.830;2022-09-02T12:43:43;38.50;28.60
8248;DHT22;4164;49.844;8.830;2022-09-02T12:48:49;38.30;28.40
8248;DHT22;4164;49.844;8.830;2022-09-02T12:54:15;38.70;28.60
8248;DHT22;4164;49.844;8.830;2022-09-02T12:56:47;38.50;28.40
8248;DHT22;4164;49.844;8.830;2022-09-02T12:59:27;37.80;28.90
8248;DHT22;4164;49.844;8.830;2022-09-02T13:25:08;38.10;27.70
8248;DHT22;4164;49.844;8.830;2022-09-02T13:33:17;37.20;28.30
8248;DHT22;4164;49.844;8.830;2022-09-02T13:35:43;37.30;27.90
8248;DHT22;4164;49.844;8.830;2022-09-02T13:38:10;37.80;27.70
8248;DHT22;4164;49.844;8.830;2022-09-02T13:40:38;36.60;28.20
8248;DHT22;4164;49.844;8.830;2022-09-02T13:45:41;36.10;28.20
8248;DHT22;4164;49.844;8.830;2022-09-02T13:50:34;36.40;28.40
8248;DHT22;4164;49.844;8.830;2022-09-02T13:53:04;37.40;27.90
8248;DHT22;4164;49.844;8.830;2022-09-02T13:55:32;37.80;27.90
8248;DHT22;4164;49.844;8.830;2022-09-02T13:58:03;37.70;28.00
8248;DHT22;4164;49.844;8.830;2022-09-02T14:00:35;37.30;27.80
8248;DHT22;4164;49.844;8.830;2022-09-02T14:03:16;35.60;28.60
8248;DHT22;4164;49.844;8.830;2022-09-02T14:05:45;35.10;28.50
8248;DHT22;4164;49.844;8.830;2022-09-02T14:08:14;35.80;29.50
8248;DHT22;4164;49.844;8.830;2022-09-02T14:10:40;37.20;28.50
8248;DHT22;4164;49.844;8.830;2022-09-02T14:13:08;36.50;28.10
8248;DHT22;4164;49.844;8.830;2022-09-02T14:15:34;35.40;28.90
8248;DHT22;4164;49.844;8.830;2022-09-02T14:18:07;34.40;29.30
8248;DHT22;4164;49.844;8.830;2022-09-02T14:20:33;33.70;29.80
8248;DHT22;4164;49.844;8.830;2022-09-02T14:23:00;34.10;29.90
8248;DHT22;4164;49.844;8.830;2022-09-02T14:26:09;34.60;29.60
8248;DHT22;4164;49.844;8.830;2022-09-02T14:28:22;33.60;29.90
8248;DHT22;4164;49.844;8.830;2022-09-02T14:30:57;32.00;30.80
8248;DHT22;4164;49.844;8.830;2022-09-02T14:36:03;29.80;32.80
8248;DHT22;4164;49.844;8.830;2022-09-02T14:38:52;28.80;34.00
8248;DHT22;4164;49.844;8.830;2022-09-02T14:41:28;27.90;34.40
8248;DHT22;4164;49.844;8.830;2022-09-02T14:49:04;26.90;35.50
8248;DHT22;4164;49.844;8.830;2022-09-02T14:51:37;26.80;36.50
8248;DHT22;4164;49.844;8.830;2022-09-02T14:54:04;26.60;36.60
8248;DHT22;4164;49.844;8.830;2022-09-02T14:56:49;26.40;36.30
8248;DHT22;4164;49.844;8.830;2022-09-02T14:59:16;26.20;36.80
8248;DHT22;4164;49.844;8.830;2022-09-02T15:01:44;26.20;37.40
8248;DHT22;4164;49.844;8.830;2022-09-02T15:04:14;26.00;36.80
8248;DHT22;4164;49.844;8.830;2022-09-02T15:06:40;25.90;37.40
8248;DHT22;4164;49.844;8.830;2022-09-02T15:09:06;25.80;37.20
8248;DHT22;4164;49.844;8.830;2022-09-02T15:11:32;25.90;37.40
8248;DHT22;4164;49.844;8.830;2022-09-02T15:13:57;25.90;38.00
8248;DHT22;4164;49.844;8.830;2022-09-02T15:16:23;25.90;37.30
8248;DHT22;4164;49.844;8.830;2022-09-02T15:18:49;26.00;37.70
8248;DHT22;4164;49.844;8.830;2022-09-02T15:21:15;26.00;38.00
8248;DHT22;4164;49.844;8.830;2022-09-02T15:23:41;25.80;38.10
8248;DHT22;4164;49.844;8.830;2022-09-02T15:26:07;25.70;38.20
8248;DHT22;4164;49.844;8.830;2022-09-02T15:28:33;25.60;38.20
8248;DHT22;4164;49.844;8.830;2022-09-02T15:31:00;25.50;38.20
8248;DHT22;4164;49.844;8.830;2022-09-02T15:33:26;25.60;38.90
8248;DHT22;4164;49.844;8.830;2022-09-02T15:35:52;25.60;38.80
8248;DHT22;4164;49.844;8.830;2022-09-02T15:38:18;25.50;39.50
8248;DHT22;4164;49.844;8.830;2022-09-02T15:40:43;25.50;38.90
8248;DHT22;4164;49.844;8.830;2022-09-02T15:43:10;25.40;39.60
8248;DHT22;4164;49.844;8.830;2022-09-02T15:45:53;25.30;39.50
8248;DHT22;4164;49.844;8.830;2022-09-02T15:48:19;25.10;39.40
8248;DHT22;4164;49.844;8.830;2022-09-02T15:50:44;25.10;39.60
8248;DHT22;4164;49.844;8.830;2022-09-02T15:53:10;25.00;39.60
8248;DHT22;4164;49.844;8.830;2022-09-02T15:55:35;24.90;39.60
8248;DHT22;4164;49.844;8.830;2022-09-02T15:58:01;24.90;40.20
8248;DHT22;4164;49.844;8.830;2022-09-02T16:00:27;24.90;40.20
8248;DHT22;4164;49.844;8.830;2022-09-02T16:02:52;24.90;39.90
8248;DHT22;4164;49.844;8.830;2022-09-02T16:05:19;24.80;40.00
8248;DHT22;4164;49.844;8.830;2022-09-02T16:07:45;24.80;40.10
8248;DHT22;4164;49.844;8.830;2022-09-02T16:10:11;24.80;40.70
8248;DHT22;4164;49.844;8.830;2022-09-02T16:12:37;24.80;40.60
8248;DHT22;4164;49.844;8.830;2022-09-02T16:15:03;24.70;40.40
8248;DHT22;4164;49.844;8.830;2022-09-02T16:17:28;24.70;41.20
8248;DHT22;4164;49.844;8.830;2022-09-02T16:19:54;24.70;41.00
8248;DHT22;4164;49.844;8.830;2022-09-02T16:22:19;24.60;40.60
8248;DHT22;4164;49.844;8.830;2022-09-02T16:24:45;24.70;40.20
8248;DHT22;4164;49.844;8.830;2022-09-02T16:27:14;24.60;40.70
8248;DHT22;4164;49.844;8.830;2022-09-02T16:29:59;24.40;40.90
8248;DHT22;4164;49.844;8.830;2022-09-02T16:32:25;24.40;41.10
8248;DHT22;4164;49.844;8.830;2022-09-02T16:34:50;24.30;41.10
8248;DHT22;4164;49.844;8.830;2022-09-02T16:37:16;24.30;40.60
8248;DHT22;4164;49.844;8.830;2022-09-02T16:39:41;24.20;40.70
8248;DHT22;4164;49.844;8.830;2022-09-02T16:42:07;24.20;41.30
8248;DHT22;4164;49.844;8.830;2022-09-02T16:44:32;24.20;41.30
8248;DHT22;4164;49.844;8.830;2022-09-02T16:46:58;24.10;41.10
8248;DHT22;4164;49.844;8.830;2022-09-02T16:49:24;24.00;41.20
8248;DHT22;4164;49.844;8.830;2022-09-02T16:51:50;23.90;41.60
8248;DHT22;4164;49.844;8.830;2022-09-02T16:54:16;23.90;41.20
8248;DHT22;4164;49.844;8.830;2022-09-02T16:56:42;23.80;41.60
8248;DHT22;4164;49.844;8.830;2022-09-02T16:59:09;23.70;41.30
8248;DHT22;4164;49.844;8.830;2022-09-02T17:01:36;23.60;41.50
8248;DHT22;4164;49.844;8.830;2022-09-02T17:04:03;23.60;42.00
8248;DHT22;4164;49.844;8.830;2022-09-02T17:06:29;23.60;41.90
8248;DHT22;4164;49.844;8.830;2022-09-02T17:08:55;23.50;42.20
8248;DHT22;4164;49.844;8.830;2022-09-02T17:11:32;23.40;42.50
8248;DHT22;4164;49.844;8.830;2022-09-02T17:14:04;23.30;42.30
8248;DHT22;4164;49.844;8.830;2022-09-02T17:16:32;23.20;42.60
8248;DHT22;4164;49.844;8.830;2022-09-02T17:18:58;23.10;42.90
8248;DHT22;4164;49.844;8.830;2022-09-02T17:23:52;22.90;43.60
8248;DHT22;4164;49.844;8.830;2022-09-02T17:26:19;22.90;43.00
8248;DHT22;4164;49.844;8.830;2022-09-02T17:28:45;22.90;44.40
8248;DHT22;4164;49.844;8.830;2022-09-02T17:31:23;22.80;43.50
8248;DHT22;4164;49.844;8.830;2022-09-02T17:33:50;22.70;43.60
8248;DHT22;4164;49.844;8.830;2022-09-02T17:36:16;22.60;43.60
8248;DHT22;4164;49.844;8.830;2022-09-02T17:38:43;22.50;44.60
8248;DHT22;4164;49.844;8.830;2022-09-02T17:41:08;22.30;44.00
8248;DHT22;4164;49.844;8.830;2022-09-02T17:43:53;22.30;44.50
8248;DHT22;4164;49.844;8.830;2022-09-02T17:46:18;22.20;44.30
8248;DHT22;4164;49.844;8.830;2022-09-02T17:48:44;22.20;45.20
8248;DHT22;4164;49.844;8.830;2022-09-02T17:51:10;22.10;44.90
8248;DHT22;4164;49.844;8.830;2022-09-02T17:53:36;21.90;45.10
8248;DHT22;4164;49.844;8.830;2022-09-02T17:56:27;21.80;45.30
8248;DHT22;4164;49.844;8.830;2022-09-02T18:04:58;21.40;45.90
8248;DHT22;4164;49.844;8.830;2022-09-02T18:10:13;21.10;46.30
8248;DHT22;4164;49.844;8.830;2022-09-02T18:12:39;21.00;46.70
8248;DHT22;4164;49.844;8.830;2022-09-02T18:15:08;20.90;46.90
8248;DHT22;4164;49.844;8.830;2022-09-02T18:17:40;20.80;47.10
8248;DHT22;4164;49.844;8.830;2022-09-02T18:20:25;20.70;47.40
8248;DHT22;4164;49.844;8.830;2022-09-02T18:25:48;20.50;48.00
8248;DHT22;4164;49.844;8.830;2022-09-02T18:28:25;20.50;48.20
8248;DHT22;4164;49.844;8.830;2022-09-02T18:37:18;20.40;49.80
8248;DHT22;4164;49.844;8.830;2022-09-02T18:42:34;20.30;49.70
8248;DHT22;4164;49.844;8.830;2022-09-02T18:47:31;20.10;51.20
8248;DHT22;4164;49.844;8.830;2022-09-02T18:50:02;20.10;52.40
8248;DHT22;4164;49.844;8.830;2022-09-02T18:52:28;20.00;52.80
8248;DHT22;4164;49.844;8.830;2022-09-02T18:55:02;19.90;51.80
8248;DHT22;4164;49.844;8.830;2022-09-02T18:57:36;19.80;52.20
8248;DHT22;4164;49.844;8.830;2022-09-02T19:00:10;19.70;52.70
8248;DHT22;4164;49.844;8.830;2022-09-02T19:02:55;19.70;52.70
8248;DHT22;4164;49.844;8.830;2022-09-02T19:05:26;19.60;53.00
8248;DHT22;4164;49.844;8.830;2022-09-02T19:08:05;19.60;54.90
8248;DHT22;4164;49.844;8.830;2022-09-02T19:11:03;19.50;55.00
8248;DHT22;4164;49.844;8.830;2022-09-02T19:13:33;19.50;56.20
8248;DHT22;4164;49.844;8.830;2022-09-02T19:15:59;19.40;55.70
8248;DHT22;4164;49.844;8.830;2022-09-02T19:18:25;19.30;56.60
8248;DHT22;4164;49.844;8.830;2022-09-02T19:20:53;19.20;56.80
8248;DHT22;4164;49.844;8.830;2022-09-02T19:23:19;19.10;57.10
8248;DHT22;4164;49.844;8.830;2022-09-02T19:25:46;19.10;58.20
8248;DHT22;4164;49.844;8.830;2022-09-02T19:28:13;19.00;58.50
8248;DHT22;4164;49.844;8.830;2022-09-02T19:30:39;18.90;59.70
8248;DHT22;4164;49.844;8.830;2022-09-02T19:33:07;18.80;60.40
8248;DHT22;4164;49.844;8.830;2022-09-02T19:35:34;18.70;62.20
8248;DHT22;4164;49.844;8.830;2022-09-02T19:38:00;18.60;62.30
8248;DHT22;4164;49.844;8.830;2022-09-02T19:40:29;18.60;63.50
8248;DHT22;4164;49.844;8.830;2022-09-02T19:42:59;18.60;64.90
8248;DHT22;4164;49.844;8.830;2022-09-02T19:45:28;18.60;65.60
8248;DHT22;4164;49.844;8.830;2022-09-02T19:47:55;18.50;65.40